SKW4263 KSLC-KSGU
Flight info
| Callsign | SKW4263 |
|---|---|
| Flight time | 0h 43m |
| Altitude | 31000 |
| Route | ARCHZ1 MLF EHK PIETZ |
| Aircraft | E145/M-SDFGIRW/S |
Departure
| Time | 2026-04-25 01:36 |
|---|---|
| Airport | Salt Lake City International Airport (KSLC) |
Arrival
| Time | 2026-04-25 02:19 |
|---|---|
| Airport | St George Regional Airport (KSGU) |
| Time | Latitude | Longitude | Altitude | Speed | Heading |
|---|---|---|---|---|---|
| 2026-04-25 01:15 | 40.78562 | -111.97896 | 4229 ft | 0 kts | 354° |
| 2026-04-25 01:27 | 40.78550 | -111.97894 | 4229 ft | 2 kts | 354° |
| 2026-04-25 01:27 | 40.78535 | -111.97892 | 4229 ft | 2 kts | 354° |
| 2026-04-25 01:28 | 40.78506 | -111.97895 | 4229 ft | 2 kts | 38° |
| 2026-04-25 01:28 | 40.78497 | -111.97910 | 4229 ft | 2 kts | 73° |
| 2026-04-25 01:28 | 40.78495 | -111.97920 | 4229 ft | 0 kts | 85° |
| 2026-04-25 01:30 | 40.78496 | -111.97912 | 4229 ft | 3 kts | 85° |
| 2026-04-25 01:30 | 40.78502 | -111.97845 | 4229 ft | 10 kts | 82° |
| 2026-04-25 01:31 | 40.78514 | -111.97748 | 4229 ft | 11 kts | 78° |
| 2026-04-25 01:31 | 40.78509 | -111.97660 | 4230 ft | 9 kts | 142° |
| 2026-04-25 01:31 | 40.78435 | -111.97646 | 4230 ft | 12 kts | 175° |
| 2026-04-25 01:31 | 40.78330 | -111.97633 | 4230 ft | 17 kts | 175° |
| 2026-04-25 01:32 | 40.78192 | -111.97617 | 4230 ft | 21 kts | 175° |
| 2026-04-25 01:32 | 40.78043 | -111.97600 | 4231 ft | 22 kts | 175° |
| 2026-04-25 01:32 | 40.77892 | -111.97551 | 4231 ft | 22 kts | 156° |
| 2026-04-25 01:32 | 40.77745 | -111.97514 | 4231 ft | 22 kts | 175° |
| 2026-04-25 01:33 | 40.77598 | -111.97498 | 4232 ft | 16 kts | 175° |
| 2026-04-25 01:33 | 40.77501 | -111.97487 | 4232 ft | 14 kts | 174° |
| 2026-04-25 01:33 | 40.77450 | -111.97445 | 4232 ft | 8 kts | 104° |
| 2026-04-25 01:33 | 40.77470 | -111.97369 | 4232 ft | 9 kts | 57° |
| 2026-04-25 01:34 | 40.77517 | -111.97321 | 4232 ft | 9 kts | 1° |
| 2026-04-25 01:34 | 40.77539 | -111.97324 | 4232 ft | 0 kts | 355° |
| 2026-04-25 01:35 | 40.77540 | -111.97324 | 4232 ft | 1 kts | 355° |
| 2026-04-25 01:35 | 40.77748 | -111.97348 | 4231 ft | 64 kts | 355° |
| 2026-04-25 01:35 | 40.78412 | -111.97426 | 4230 ft | 123 kts | 354° |
| 2026-04-25 01:36 | 40.79390 | -111.97542 | 4400 ft | 148 kts | 352° |
| 2026-04-25 01:36 | 40.80385 | -111.97798 | 4954 ft | 150 kts | 330° |
| 2026-04-25 01:36 | 40.81070 | -111.98873 | 5385 ft | 165 kts | 291° |
| 2026-04-25 01:36 | 40.81131 | -112.00434 | 5899 ft | 179 kts | 271° |
| 2026-04-25 01:37 | 40.81045 | -112.02113 | 6379 ft | 191 kts | 271° |
| 2026-04-25 01:37 | 40.80952 | -112.03936 | 6813 ft | 209 kts | 269° |
| 2026-04-25 01:37 | 40.80608 | -112.05882 | 7314 ft | 226 kts | 256° |
| 2026-04-25 01:37 | 40.80142 | -112.07882 | 7786 ft | 236 kts | 256° |
| 2026-04-25 01:38 | 40.79636 | -112.09981 | 8236 ft | 247 kts | 255° |
| 2026-04-25 01:38 | 40.79092 | -112.12208 | 8674 ft | 258 kts | 255° |
| 2026-04-25 01:38 | 40.78536 | -112.14480 | 9163 ft | 266 kts | 254° |
| 2026-04-25 01:38 | 40.77966 | -112.16802 | 9834 ft | 266 kts | 253° |
| 2026-04-25 01:39 | 40.77400 | -112.19109 | 10546 ft | 264 kts | 253° |
| 2026-04-25 01:39 | 40.76830 | -112.21431 | 11013 ft | 272 kts | 253° |
| 2026-04-25 01:39 | 40.76236 | -112.23846 | 11369 ft | 283 kts | 252° |
| 2026-04-25 01:39 | 40.75337 | -112.26162 | 11786 ft | 292 kts | 231° |
| 2026-04-25 01:40 | 40.73690 | -112.27745 | 12222 ft | 305 kts | 206° |
| 2026-04-25 01:40 | 40.71548 | -112.28258 | 12720 ft | 316 kts | 187° |
| 2026-04-25 01:40 | 40.69389 | -112.28565 | 13310 ft | 313 kts | 193° |
| 2026-04-25 01:40 | 40.67252 | -112.28984 | 13834 ft | 315 kts | 194° |
| 2026-04-25 01:41 | 40.65068 | -112.29426 | 14324 ft | 318 kts | 194° |
| 2026-04-25 01:41 | 40.62856 | -112.29875 | 14830 ft | 320 kts | 194° |
| 2026-04-25 01:41 | 40.60637 | -112.30326 | 15294 ft | 323 kts | 194° |
| 2026-04-25 01:41 | 40.58428 | -112.30774 | 15788 ft | 325 kts | 194° |
| 2026-04-25 01:42 | 40.56208 | -112.31282 | 16231 ft | 325 kts | 200° |
| 2026-04-25 01:42 | 40.54048 | -112.32159 | 16688 ft | 326 kts | 203° |
| 2026-04-25 01:42 | 40.51862 | -112.33054 | 17144 ft | 328 kts | 203° |
| 2026-04-25 01:42 | 40.49694 | -112.33942 | 17571 ft | 331 kts | 203° |
| 2026-04-25 01:43 | 40.47475 | -112.34849 | 18129 ft | 330 kts | 203° |
| 2026-04-25 01:43 | 40.45302 | -112.35738 | 18666 ft | 329 kts | 203° |
| 2026-04-25 01:43 | 40.43121 | -112.36629 | 19144 ft | 329 kts | 203° |
| 2026-04-25 01:43 | 40.40943 | -112.37518 | 19615 ft | 330 kts | 203° |
| 2026-04-25 01:44 | 40.38748 | -112.38412 | 20101 ft | 330 kts | 204° |
| 2026-04-25 01:44 | 40.36567 | -112.39301 | 20642 ft | 328 kts | 204° |
| 2026-04-25 01:44 | 40.34382 | -112.40192 | 21115 ft | 329 kts | 204° |
| 2026-04-25 01:44 | 40.32200 | -112.41080 | 21529 ft | 332 kts | 204° |
| 2026-04-25 01:45 | 40.29945 | -112.42000 | 21518 ft | 346 kts | 204° |
| 2026-04-25 01:45 | 40.27605 | -112.42951 | 21701 ft | 354 kts | 203° |
| 2026-04-25 01:45 | 40.25252 | -112.43906 | 22092 ft | 356 kts | 203° |
| 2026-04-25 01:45 | 40.22893 | -112.44863 | 22570 ft | 355 kts | 203° |
| 2026-04-25 01:46 | 40.20538 | -112.45818 | 23038 ft | 354 kts | 203° |
| 2026-04-25 01:46 | 40.18214 | -112.46826 | 23443 ft | 351 kts | 210° |
| 2026-04-25 01:46 | 40.16056 | -112.48302 | 23884 ft | 347 kts | 214° |
| 2026-04-25 01:46 | 40.13947 | -112.49786 | 24401 ft | 345 kts | 215° |
| 2026-04-25 01:47 | 40.11833 | -112.51276 | 24886 ft | 343 kts | 215° |
| 2026-04-25 01:47 | 40.09758 | -112.52736 | 25371 ft | 341 kts | 215° |
| 2026-04-25 01:47 | 40.07658 | -112.54214 | 25762 ft | 341 kts | 215° |
| 2026-04-25 01:47 | 40.05601 | -112.55660 | 26233 ft | 338 kts | 214° |
| 2026-04-25 01:48 | 40.03524 | -112.57118 | 26668 ft | 337 kts | 215° |
| 2026-04-25 01:48 | 40.01476 | -112.58556 | 27140 ft | 334 kts | 215° |
| 2026-04-25 01:48 | 39.99437 | -112.59988 | 27557 ft | 333 kts | 215° |
| 2026-04-25 01:48 | 39.97403 | -112.61413 | 27931 ft | 332 kts | 215° |
| 2026-04-25 01:49 | 39.95387 | -112.62824 | 28366 ft | 330 kts | 215° |
| 2026-04-25 01:49 | 39.93380 | -112.64230 | 28794 ft | 328 kts | 215° |
| 2026-04-25 01:49 | 39.91369 | -112.65637 | 29162 ft | 328 kts | 214° |
| 2026-04-25 01:49 | 39.89366 | -112.67037 | 29605 ft | 325 kts | 215° |
| 2026-04-25 01:50 | 39.87372 | -112.68432 | 29874 ft | 329 kts | 214° |
| 2026-04-25 01:50 | 39.85310 | -112.69874 | 29889 ft | 338 kts | 214° |
| 2026-04-25 01:50 | 39.81047 | -112.72848 | 29884 ft | 351 kts | 214° |
| 2026-04-25 01:51 | 39.76633 | -112.75922 | 29881 ft | 364 kts | 214° |
| 2026-04-25 01:51 | 39.72065 | -112.79099 | 29877 ft | 375 kts | 214° |
| 2026-04-25 01:52 | 39.67228 | -112.81926 | 29885 ft | 393 kts | 201° |
| 2026-04-25 01:52 | 39.64501 | -112.82600 | 29879 ft | 405 kts | 192° |
| 2026-04-25 01:52 | 39.61667 | -112.82916 | 29882 ft | 409 kts | 192° |
| 2026-04-25 01:53 | 39.55992 | -112.83717 | 29878 ft | 416 kts | 192° |
| 2026-04-25 01:53 | 39.50188 | -112.84578 | 29877 ft | 423 kts | 192° |
| 2026-04-25 01:54 | 39.44265 | -112.85461 | 29870 ft | 429 kts | 192° |
| 2026-04-25 01:54 | 39.38308 | -112.86346 | 29866 ft | 433 kts | 192° |
| 2026-04-25 01:55 | 39.32299 | -112.87238 | 29877 ft | 434 kts | 192° |
| 2026-04-25 01:55 | 39.26291 | -112.88128 | 29886 ft | 436 kts | 192° |
| 2026-04-25 01:56 | 39.20256 | -112.89020 | 29882 ft | 436 kts | 191° |
| 2026-04-25 01:56 | 39.14264 | -112.89906 | 29892 ft | 435 kts | 191° |
| 2026-04-25 01:57 | 39.05228 | -112.91238 | 29895 ft | 434 kts | 192° |
| 2026-04-25 01:58 | 38.99239 | -112.92118 | 29887 ft | 435 kts | 191° |
| 2026-04-25 01:58 | 38.93201 | -112.93005 | 29890 ft | 435 kts | 191° |
| 2026-04-25 01:59 | 38.87188 | -112.93886 | 29887 ft | 434 kts | 191° |
| 2026-04-25 01:59 | 38.81184 | -112.94764 | 29906 ft | 434 kts | 191° |
| 2026-04-25 02:00 | 38.75166 | -112.95644 | 29926 ft | 434 kts | 191° |
| 2026-04-25 02:00 | 38.69124 | -112.96524 | 29915 ft | 434 kts | 191° |
| 2026-04-25 02:01 | 38.63129 | -112.97397 | 29913 ft | 434 kts | 190° |
| 2026-04-25 02:01 | 38.57115 | -112.98271 | 29918 ft | 434 kts | 190° |
| 2026-04-25 02:02 | 38.51100 | -112.99143 | 29892 ft | 435 kts | 191° |
| 2026-04-25 02:02 | 38.45090 | -113.00015 | 29872 ft | 435 kts | 189° |
| 2026-04-25 02:03 | 38.39048 | -113.00887 | 29888 ft | 434 kts | 190° |
| 2026-04-25 02:03 | 38.33061 | -113.01709 | 29894 ft | 435 kts | 187° |
| 2026-04-25 02:04 | 38.27014 | -113.02203 | 29920 ft | 434 kts | 187° |
| 2026-04-25 02:04 | 38.20970 | -113.02778 | 29921 ft | 434 kts | 188° |
| 2026-04-25 02:04 | 38.17954 | -113.03068 | 29343 ft | 435 kts | 187° |
| 2026-04-25 02:05 | 38.14927 | -113.03359 | 28747 ft | 431 kts | 187° |
| 2026-04-25 02:05 | 38.11933 | -113.03646 | 28154 ft | 429 kts | 188° |
| 2026-04-25 02:05 | 38.08957 | -113.03932 | 27558 ft | 427 kts | 187° |
| 2026-04-25 02:05 | 38.05946 | -113.04221 | 26966 ft | 427 kts | 188° |
| 2026-04-25 02:06 | 38.03001 | -113.04504 | 26379 ft | 426 kts | 188° |
| 2026-04-25 02:06 | 38.00024 | -113.04788 | 25798 ft | 427 kts | 188° |
| 2026-04-25 02:06 | 37.97065 | -113.05071 | 25209 ft | 428 kts | 188° |
| 2026-04-25 02:06 | 37.94083 | -113.05357 | 24626 ft | 429 kts | 188° |
| 2026-04-25 02:07 | 37.91096 | -113.05643 | 24019 ft | 429 kts | 188° |
| 2026-04-25 02:07 | 37.88099 | -113.05930 | 23430 ft | 428 kts | 188° |
| 2026-04-25 02:07 | 37.85147 | -113.06211 | 22869 ft | 427 kts | 188° |
| 2026-04-25 02:07 | 37.82173 | -113.06495 | 22302 ft | 426 kts | 188° |
| 2026-04-25 02:08 | 37.79248 | -113.06805 | 21730 ft | 420 kts | 191° |
| 2026-04-25 02:08 | 37.76463 | -113.07748 | 21170 ft | 412 kts | 201° |
| 2026-04-25 02:08 | 37.73747 | -113.08859 | 20602 ft | 409 kts | 201° |
| 2026-04-25 02:08 | 37.71047 | -113.09963 | 20036 ft | 406 kts | 201° |
| 2026-04-25 02:09 | 37.68353 | -113.11062 | 19446 ft | 401 kts | 201° |
| 2026-04-25 02:09 | 37.65738 | -113.12130 | 18834 ft | 395 kts | 200° |
| 2026-04-25 02:09 | 37.63124 | -113.13195 | 18226 ft | 390 kts | 200° |
| 2026-04-25 02:09 | 37.60537 | -113.14249 | 17606 ft | 386 kts | 200° |
| 2026-04-25 02:10 | 37.58009 | -113.15279 | 16998 ft | 382 kts | 200° |
| 2026-04-25 02:10 | 37.55495 | -113.16301 | 16393 ft | 378 kts | 201° |
| 2026-04-25 02:10 | 37.53003 | -113.17315 | 15788 ft | 375 kts | 200° |
| 2026-04-25 02:10 | 37.50536 | -113.18317 | 15188 ft | 371 kts | 200° |
| 2026-04-25 02:11 | 37.48092 | -113.19311 | 14586 ft | 368 kts | 201° |
| 2026-04-25 02:11 | 37.45800 | -113.20702 | 13969 ft | 356 kts | 213° |
| 2026-04-25 02:11 | 37.43714 | -113.22241 | 13362 ft | 346 kts | 212° |
| 2026-04-25 02:11 | 37.41668 | -113.23743 | 12751 ft | 337 kts | 212° |
| 2026-04-25 02:12 | 37.39636 | -113.25207 | 12136 ft | 329 kts | 212° |
| 2026-04-25 02:12 | 37.37694 | -113.26620 | 11495 ft | 318 kts | 212° |
| 2026-04-25 02:12 | 37.35862 | -113.27957 | 10884 ft | 296 kts | 212° |
| 2026-04-25 02:12 | 37.34132 | -113.29224 | 10310 ft | 281 kts | 212° |
| 2026-04-25 02:13 | 37.32462 | -113.30447 | 9891 ft | 277 kts | 212° |
| 2026-04-25 02:13 | 37.30871 | -113.31612 | 9385 ft | 273 kts | 212° |
| 2026-04-25 02:13 | 37.29227 | -113.32815 | 8708 ft | 266 kts | 212° |
| 2026-04-25 02:13 | 37.27631 | -113.33982 | 8286 ft | 264 kts | 212° |
| 2026-04-25 02:14 | 37.26069 | -113.35124 | 7876 ft | 263 kts | 212° |
| 2026-04-25 02:14 | 37.24522 | -113.36254 | 7486 ft | 261 kts | 212° |
| 2026-04-25 02:14 | 37.22986 | -113.37376 | 7156 ft | 253 kts | 212° |
| 2026-04-25 02:14 | 37.21481 | -113.38474 | 6768 ft | 243 kts | 212° |
| 2026-04-25 02:15 | 37.20047 | -113.39521 | 6411 ft | 235 kts | 212° |
| 2026-04-25 02:15 | 37.18648 | -113.40540 | 6075 ft | 227 kts | 212° |
| 2026-04-25 02:15 | 37.17320 | -113.41509 | 5761 ft | 220 kts | 212° |
| 2026-04-25 02:15 | 37.16017 | -113.42458 | 5456 ft | 213 kts | 212° |
| 2026-04-25 02:16 | 37.14791 | -113.43350 | 5160 ft | 193 kts | 212° |
| 2026-04-25 02:16 | 37.13675 | -113.44163 | 4916 ft | 179 kts | 212° |
| 2026-04-25 02:16 | 37.12647 | -113.44912 | 4684 ft | 164 kts | 212° |
| 2026-04-25 02:16 | 37.11701 | -113.45599 | 4459 ft | 152 kts | 213° |
| 2026-04-25 02:17 | 37.10792 | -113.46260 | 4256 ft | 148 kts | 213° |
| 2026-04-25 02:17 | 37.09908 | -113.46904 | 4059 ft | 148 kts | 212° |
| 2026-04-25 02:17 | 37.09014 | -113.47554 | 3861 ft | 146 kts | 213° |
| 2026-04-25 02:17 | 37.08152 | -113.48201 | 3674 ft | 144 kts | 216° |
| 2026-04-25 02:18 | 37.07321 | -113.48886 | 3493 ft | 142 kts | 216° |
| 2026-04-25 02:18 | 37.06464 | -113.49508 | 3305 ft | 142 kts | 210° |
| 2026-04-25 02:18 | 37.05556 | -113.50016 | 3102 ft | 141 kts | 205° |
| 2026-04-25 02:18 | 37.04660 | -113.50490 | 2914 ft | 136 kts | 205° |
| 2026-04-25 02:19 | 37.03860 | -113.50910 | 2888 ft | 109 kts | 204° |
| 2026-04-25 02:19 | 37.03309 | -113.51207 | 2873 ft | 60 kts | 202° |
| 2026-04-25 02:19 | 37.03154 | -113.51224 | 2867 ft | 14 kts | 120° |
| 2026-04-25 02:19 | 37.03110 | -113.51099 | 2866 ft | 16 kts | 112° |
| 2026-04-25 02:20 | 37.03068 | -113.51032 | 2864 ft | 7 kts | 131° |
| 2026-04-25 02:20 | 37.03053 | -113.50995 | 2864 ft | 2 kts | 114° |
| 2026-04-25 02:20 | 37.03051 | -113.50988 | 2864 ft | 0 kts | 113° |
| 2026-04-25 02:20 | 37.03050 | -113.50987 | 2864 ft | 0 kts | 113° |